createdAt,value
2022-11-30T00:01:22.708Z,7.03
2022-11-30T00:03:53.771Z,6.90
2022-11-30T00:06:23.825Z,5.50
2022-11-30T00:08:54.551Z,6.57
2022-11-30T00:11:24.129Z,5.70
2022-11-30T00:13:52.282Z,6.23
2022-11-30T00:16:22.246Z,6.20
2022-11-30T00:18:50.890Z,7.57
2022-11-30T00:21:19.114Z,7.10
2022-11-30T00:23:48.208Z,6.07
2022-11-30T00:26:18.422Z,6.33
2022-11-30T00:28:47.652Z,6.70
2022-11-30T00:31:18.853Z,6.93
2022-11-30T00:33:48.780Z,6.70
2022-11-30T00:36:19.119Z,6.53
2022-11-30T00:38:47.743Z,6.40
2022-11-30T00:41:16.338Z,7.87
2022-11-30T00:43:44.500Z,7.00
2022-11-30T00:46:13.543Z,7.07
2022-11-30T00:48:42.655Z,7.10
2022-11-30T00:51:13.198Z,8.00
2022-11-30T00:53:42.091Z,7.43
2022-11-30T00:56:11.333Z,7.77
2022-11-30T00:58:39.954Z,8.30
2022-11-30T01:01:08.548Z,7.80
2022-11-30T01:03:37.748Z,8.50
2022-11-30T01:06:07.526Z,8.27
2022-11-30T01:08:37.152Z,7.57
2022-11-30T01:11:09.511Z,7.87
2022-11-30T01:13:37.663Z,7.20
2022-11-30T01:16:10.725Z,8.70
2022-11-30T01:18:39.378Z,7.37
2022-11-30T01:21:08.819Z,7.90
2022-11-30T01:23:38.365Z,8.10
2022-11-30T01:26:06.699Z,8.00
2022-11-30T01:28:35.351Z,7.43
2022-11-30T01:31:05.477Z,7.80
2022-11-30T01:33:34.209Z,8.60
2022-11-30T01:36:04.491Z,8.40
2022-11-30T01:38:33.994Z,8.40
2022-11-30T01:41:04.206Z,7.40
2022-11-30T01:43:41.785Z,8.27
2022-11-30T01:46:31.380Z,8.23
2022-11-30T01:49:11.367Z,8.37
2022-11-30T01:51:44.076Z,8.23
2022-11-30T01:54:14.029Z,8.57
2022-11-30T01:56:48.109Z,8.00
2022-11-30T01:59:16.831Z,8.10
2022-11-30T02:01:45.447Z,7.30
2022-11-30T02:04:20.225Z,8.67
2022-11-30T02:06:49.187Z,8.17
2022-11-30T02:09:19.160Z,7.57
2022-11-30T02:11:49.569Z,8.57
2022-11-30T02:14:32.477Z,7.77
2022-11-30T02:17:10.805Z,8.77
2022-11-30T02:20:17.186Z,8.47
2022-11-30T02:23:10.655Z,8.57
2022-11-30T02:25:47.272Z,8.73
2022-11-30T02:28:47.852Z,8.70
2022-11-30T02:31:22.032Z,9.17
2022-11-30T02:33:51.723Z,8.30
2022-11-30T02:36:21.857Z,8.33
2022-11-30T02:38:50.834Z,8.30
2022-11-30T02:41:18.932Z,8.13
2022-11-30T02:43:47.108Z,7.70
2022-11-30T02:46:23.376Z,7.80
2022-11-30T02:48:59.364Z,8.70
2022-11-30T02:51:29.306Z,7.90
2022-11-30T02:53:57.991Z,7.67
2022-11-30T02:56:26.863Z,8.10
2022-11-30T02:58:54.965Z,9.20
2022-11-30T03:01:24.720Z,8.90
2022-11-30T03:03:52.908Z,10.47
2022-11-30T03:06:21.003Z,10.07
2022-11-30T03:08:49.062Z,10.20
2022-11-30T03:11:17.151Z,10.23
2022-11-30T03:13:45.216Z,9.43
2022-11-30T03:16:14.704Z,8.73
2022-11-30T03:18:44.140Z,8.70
2022-11-30T03:21:13.389Z,9.53
2022-11-30T03:23:41.526Z,10.13
2022-11-30T03:26:10.330Z,9.77
2022-11-30T03:28:39.074Z,10.00
2022-11-30T03:31:07.234Z,9.60
2022-11-30T03:33:35.378Z,9.43
2022-11-30T03:36:06.793Z,9.47
2022-11-30T03:38:35.025Z,8.70
2022-11-30T03:41:04.467Z,9.20
2022-11-30T03:43:33.056Z,8.13
2022-11-30T03:46:01.361Z,8.47
2022-11-30T03:48:29.471Z,9.40
2022-11-30T03:50:57.700Z,8.53
2022-11-30T03:53:27.435Z,8.67
2022-11-30T03:55:57.198Z,8.90
2022-11-30T03:58:26.169Z,8.70
2022-11-30T04:01:01.009Z,7.90
2022-11-30T04:03:29.283Z,8.97
2022-11-30T04:05:57.585Z,7.70
2022-11-30T04:08:27.343Z,8.50
2022-11-30T04:10:56.513Z,9.00
2022-11-30T04:13:25.601Z,9.17
2022-11-30T04:15:55.143Z,9.20
2022-11-30T04:18:24.865Z,8.07
2022-11-30T04:20:54.058Z,8.93
2022-11-30T04:23:23.062Z,8.10
2022-11-30T04:25:52.553Z,8.40
2022-11-30T04:28:21.117Z,9.23
2022-11-30T04:30:49.264Z,8.27
2022-11-30T04:33:17.806Z,7.60
2022-11-30T04:35:49.182Z,6.90
2022-11-30T04:38:17.402Z,7.63
2022-11-30T04:40:46.125Z,8.10
2022-11-30T04:43:15.735Z,8.10
2022-11-30T04:45:45.573Z,8.70
2022-11-30T04:48:14.471Z,8.20
2022-11-30T04:50:42.640Z,8.40
2022-11-30T04:53:10.806Z,8.00
2022-11-30T04:55:39.287Z,6.90
2022-11-30T04:58:07.804Z,7.33
2022-11-30T05:00:38.930Z,7.40
2022-11-30T05:03:07.025Z,7.37
2022-11-30T05:05:35.196Z,6.97
2022-11-30T05:08:03.316Z,7.53
2022-11-30T05:10:33.672Z,7.83
2022-11-30T05:13:02.009Z,7.30
2022-11-30T05:15:30.080Z,7.10
2022-11-30T05:18:01.507Z,7.80
2022-11-30T05:20:29.937Z,6.70
2022-11-30T05:22:58.561Z,7.10
2022-11-30T05:25:26.736Z,6.20
2022-11-30T05:27:54.833Z,7.07
2022-11-30T05:30:23.026Z,7.40
2022-11-30T05:32:51.082Z,7.00
2022-11-30T05:35:20.548Z,7.60
2022-11-30T05:37:48.640Z,7.20
2022-11-30T05:40:16.788Z,5.90
2022-11-30T05:42:44.908Z,6.17
2022-11-30T05:45:12.961Z,5.87
2022-11-30T05:47:41.057Z,6.63
2022-11-30T05:50:10.063Z,6.93
2022-11-30T05:52:39.465Z,6.10
2022-11-30T05:55:08.001Z,6.40
2022-11-30T05:57:37.375Z,5.93
2022-11-30T06:00:06.529Z,7.27
2022-11-30T06:02:40.024Z,7.13
2022-11-30T06:05:09.219Z,7.23
2022-11-30T06:07:37.409Z,6.37
2022-11-30T06:10:08.257Z,6.60
2022-11-30T06:12:36.385Z,6.93
2022-11-30T06:15:04.997Z,6.90
2022-11-30T06:17:33.137Z,7.07
2022-11-30T06:20:01.265Z,7.20
2022-11-30T06:22:29.421Z,7.07
2022-11-30T06:24:57.476Z,7.67
2022-11-30T06:27:26.938Z,7.80
2022-11-30T06:29:55.019Z,6.50
2022-11-30T06:32:23.115Z,6.77
2022-11-30T06:34:51.231Z,6.97
2022-11-30T06:37:19.358Z,6.37
2022-11-30T06:42:37.635Z,6.13
2022-11-30T06:45:07.285Z,6.33
2022-11-30T06:47:35.435Z,6.20
2022-11-30T06:50:03.553Z,6.97
2022-11-30T06:52:31.774Z,6.63
2022-11-30T06:54:59.832Z,6.77
2022-11-30T06:57:28.965Z,6.57
2022-11-30T06:59:59.116Z,6.97
2022-11-30T07:02:27.598Z,6.27
2022-11-30T07:04:55.697Z,6.90
2022-11-30T07:07:23.931Z,6.50
2022-11-30T07:09:52.114Z,6.63
2022-11-30T07:12:20.193Z,5.70
2022-11-30T07:14:49.594Z,6.00
2022-11-30T07:17:19.359Z,5.93
2022-11-30T07:19:47.471Z,6.03
2022-11-30T07:22:15.772Z,6.13
2022-11-30T07:25:01.422Z,6.80
2022-11-30T07:27:29.695Z,6.10
2022-11-30T07:29:57.786Z,5.70
2022-11-30T07:32:27.222Z,6.10
2022-11-30T07:34:55.298Z,6.67
2022-11-30T07:37:23.390Z,6.77
2022-11-30T07:39:51.430Z,6.77
2022-11-30T07:42:19.565Z,6.23
2022-11-30T07:44:53.886Z,7.10
2022-11-30T07:47:25.090Z,7.90
2022-11-30T07:49:54.492Z,6.47
2022-11-30T07:52:22.576Z,7.53
2022-11-30T07:54:50.831Z,8.87
2022-11-30T07:57:19.190Z,6.93
2022-11-30T07:59:47.545Z,7.10
2022-11-30T08:02:16.004Z,6.70
2022-11-30T08:04:44.336Z,6.43
2022-11-30T08:07:14.659Z,7.43
2022-11-30T08:09:42.750Z,7.10
2022-11-30T08:12:10.842Z,6.50
2022-11-30T08:15:03.644Z,6.77
2022-11-30T08:17:26.984Z,7.23
2022-11-30T08:19:55.308Z,6.80
2022-11-30T08:22:24.774Z,7.93
2022-11-30T08:24:52.843Z,7.23
2022-11-30T08:27:20.919Z,7.07
2022-11-30T08:29:49.025Z,6.97
2022-11-30T08:32:17.210Z,7.10
2022-11-30T08:34:45.684Z,7.50
2022-11-30T08:37:14.072Z,7.17
2022-11-30T08:39:43.477Z,6.30
2022-11-30T08:42:12.234Z,6.67
2022-11-30T08:44:40.291Z,6.90
2022-11-30T08:47:08.389Z,7.20
2022-11-30T08:49:36.548Z,6.73
2022-11-30T08:52:20.101Z,7.33
2022-11-30T08:54:50.373Z,7.10
2022-11-30T08:57:20.576Z,6.20
2022-11-30T08:59:49.070Z,7.40
2022-11-30T09:02:19.608Z,6.90
2022-11-30T09:04:49.561Z,6.63
2022-11-30T09:07:18.090Z,7.17
2022-11-30T09:09:46.517Z,6.73
2022-11-30T09:12:16.522Z,5.73
2022-11-30T09:14:45.535Z,6.50
2022-11-30T09:17:13.994Z,6.90
2022-11-30T09:19:42.387Z,6.43
2022-11-30T09:22:10.489Z,6.20
2022-11-30T09:24:39.110Z,6.67
2022-11-30T09:27:07.198Z,6.20
2022-11-30T09:29:37.133Z,6.73
2022-11-30T09:32:05.407Z,7.40
2022-11-30T09:34:33.640Z,6.67
2022-11-30T09:37:01.716Z,5.47
2022-11-30T09:39:29.879Z,6.40
2022-11-30T09:42:32.393Z,6.40
2022-11-30T09:45:07.268Z,5.70
2022-11-30T09:48:05.616Z,5.33
2022-11-30T09:50:38.470Z,5.87
2022-11-30T09:53:11.560Z,6.70
2022-11-30T09:55:42.850Z,6.33
2022-11-30T09:58:23.939Z,6.77
2022-11-30T10:00:53.369Z,6.93
2022-11-30T10:03:24.336Z,7.13
2022-11-30T10:06:00.337Z,7.30
2022-11-30T10:08:51.562Z,6.73
2022-11-30T10:11:39.851Z,6.17
2022-11-30T10:14:29.527Z,6.00
2022-11-30T10:17:05.819Z,5.80
2022-11-30T10:19:54.076Z,6.37
2022-11-30T10:22:30.237Z,6.47
2022-11-30T10:25:13.912Z,8.07
2022-11-30T10:27:50.558Z,6.70
2022-11-30T10:30:23.233Z,7.00
2022-11-30T10:32:55.407Z,6.13
2022-11-30T10:35:32.846Z,5.97
2022-11-30T10:38:05.808Z,6.13
2022-11-30T10:40:41.522Z,5.13
2022-11-30T10:43:21.724Z,6.30
2022-11-30T10:45:51.491Z,5.20
2022-11-30T10:48:28.296Z,5.50
2022-11-30T10:50:56.506Z,5.00
2022-11-30T10:53:24.665Z,4.87
2022-11-30T10:56:01.138Z,4.27
2022-11-30T10:58:32.513Z,4.67
2022-11-30T11:01:04.699Z,4.00
2022-11-30T11:03:34.619Z,3.43
2022-11-30T11:06:15.930Z,3.73
2022-11-30T11:08:45.494Z,3.20
2022-11-30T11:11:34.449Z,2.60
2022-11-30T11:14:20.029Z,4.07
2022-11-30T11:16:54.730Z,4.20
2022-11-30T11:19:34.253Z,4.47
2022-11-30T11:22:05.112Z,4.23
2022-11-30T11:24:34.064Z,4.77
2022-11-30T11:27:02.307Z,4.67
2022-11-30T11:29:33.775Z,4.90
2022-11-30T11:32:21.946Z,3.97
2022-11-30T11:34:51.733Z,3.47
2022-11-30T11:37:26.265Z,3.43
2022-11-30T11:40:03.500Z,3.93
2022-11-30T11:42:34.852Z,3.70
2022-11-30T11:45:04.036Z,4.17
2022-11-30T11:47:39.435Z,3.20
2022-11-30T11:50:58.262Z,3.43
2022-11-30T11:53:22.891Z,4.40
2022-11-30T11:55:53.836Z,4.50
2022-11-30T11:58:29.952Z,4.10
2022-11-30T12:01:17.125Z,4.90
2022-11-30T12:03:57.787Z,4.17
2022-11-30T12:06:28.820Z,4.60
2022-11-30T12:09:02.986Z,4.50
2022-11-30T12:11:41.283Z,4.53
2022-11-30T12:14:13.582Z,5.10
2022-11-30T12:17:11.068Z,4.90
2022-11-30T12:19:47.746Z,4.50
2022-11-30T12:22:38.095Z,6.00
2022-11-30T12:25:23.074Z,5.67
2022-11-30T12:27:57.156Z,5.63
2022-11-30T12:30:29.647Z,6.17
2022-11-30T12:33:10.302Z,7.50
2022-11-30T12:35:46.515Z,5.30
2022-11-30T12:38:26.718Z,6.07
2022-11-30T12:41:03.694Z,6.67
2022-11-30T12:43:41.085Z,5.10
2022-11-30T12:46:20.544Z,5.10
2022-11-30T12:49:01.527Z,6.27
2022-11-30T12:51:35.706Z,5.33
2022-11-30T12:54:12.510Z,5.23
2022-11-30T12:56:46.663Z,5.47
2022-11-30T12:59:24.920Z,5.23
2022-11-30T13:02:07.124Z,6.23
2022-11-30T13:04:41.388Z,6.47
2022-11-30T13:07:21.547Z,5.60
2022-11-30T13:09:55.614Z,6.20
2022-11-30T13:12:35.756Z,6.07
2022-11-30T13:15:12.403Z,6.70
2022-11-30T13:17:44.424Z,5.10
2022-11-30T13:20:21.159Z,5.73
2022-11-30T13:22:56.819Z,6.00
2022-11-30T13:26:06.818Z,6.33
2022-11-30T13:28:29.623Z,6.67
2022-11-30T13:31:06.498Z,5.83
2022-11-30T13:33:49.113Z,5.83
2022-11-30T13:36:38.026Z,7.00
2022-11-30T13:39:31.364Z,6.10
2022-11-30T13:42:31.893Z,6.20
2022-11-30T13:45:26.701Z,7.70
2022-11-30T13:47:57.121Z,8.37
2022-11-30T13:50:33.887Z,6.33
2022-11-30T13:53:24.142Z,7.43
2022-11-30T13:56:05.370Z,7.20
2022-11-30T13:58:36.348Z,6.50
2022-11-30T14:01:25.405Z,6.57
2022-11-30T14:04:30.182Z,7.10
2022-11-30T14:07:00.577Z,7.03
2022-11-30T14:09:58.271Z,9.87
2022-11-30T14:12:46.924Z,8.90
2022-11-30T14:15:34.163Z,8.80
2022-11-30T14:18:12.810Z,10.60
2022-11-30T14:20:46.046Z,9.77
2022-11-30T14:23:18.219Z,9.23
2022-11-30T14:25:49.540Z,10.10
2022-11-30T14:28:21.312Z,10.50
2022-11-30T14:30:51.681Z,8.90
2022-11-30T14:33:23.551Z,10.63
2022-11-30T14:35:56.487Z,10.60
2022-11-30T14:38:26.905Z,10.20
2022-11-30T14:40:56.015Z,10.10
2022-11-30T14:43:24.823Z,10.93
2022-11-30T14:46:05.025Z,10.00
2022-11-30T14:48:35.269Z,9.37
2022-11-30T14:51:04.178Z,10.20
2022-11-30T14:53:40.295Z,9.40
2022-11-30T14:56:15.564Z,10.03
2022-11-30T14:58:50.341Z,10.67
2022-11-30T15:01:24.566Z,9.90
2022-11-30T15:03:54.321Z,9.93
2022-11-30T15:06:27.838Z,11.10
2022-11-30T15:08:58.206Z,9.90
2022-11-30T15:11:27.221Z,10.43
2022-11-30T15:13:57.944Z,10.03
2022-11-30T15:16:30.440Z,8.90
2022-11-30T15:19:00.430Z,10.40
2022-11-30T15:21:31.986Z,9.70
2022-11-30T15:24:02.102Z,9.50
2022-11-30T15:26:37.894Z,8.53
2022-11-30T15:29:09.693Z,7.90
2022-11-30T15:31:42.515Z,8.00
2022-11-30T15:34:20.165Z,8.60
2022-11-30T15:36:48.888Z,8.20
2022-11-30T15:39:20.800Z,7.93
2022-11-30T15:41:54.815Z,7.67
2022-11-30T15:44:38.409Z,8.27
2022-11-30T15:47:23.786Z,8.57
2022-11-30T15:49:53.631Z,8.40
2022-11-30T15:52:26.566Z,8.30
2022-11-30T15:54:56.416Z,8.60
2022-11-30T15:57:26.928Z,7.30
2022-11-30T16:00:08.167Z,8.67
2022-11-30T16:02:38.606Z,6.80
2022-11-30T16:05:27.678Z,7.77
2022-11-30T16:07:59.408Z,6.17
2022-11-30T16:10:37.397Z,6.43
2022-11-30T16:13:06.426Z,6.40
2022-11-30T16:15:36.353Z,6.77
2022-11-30T16:18:16.115Z,6.60
2022-11-30T16:20:45.782Z,6.10
2022-11-30T16:23:15.299Z,6.07
2022-11-30T16:25:44.433Z,5.90
2022-11-30T16:28:14.326Z,6.10
2022-11-30T16:30:43.495Z,6.80
2022-11-30T16:33:15.640Z,6.10
2022-11-30T16:35:48.475Z,6.90
2022-11-30T16:38:17.040Z,7.60
2022-11-30T16:40:45.587Z,7.83
2022-11-30T16:43:14.386Z,7.17
2022-11-30T16:45:46.498Z,7.03
2022-11-30T16:48:16.004Z,6.20
2022-11-30T16:50:44.669Z,6.30
2022-11-30T16:53:15.812Z,6.77
2022-11-30T16:55:44.082Z,6.23
2022-11-30T16:58:12.337Z,6.20
2022-11-30T17:00:41.720Z,6.70
2022-11-30T17:03:17.125Z,5.83
2022-11-30T17:05:46.607Z,5.87
2022-11-30T17:08:14.682Z,5.60
2022-11-30T17:10:42.894Z,5.17
2022-11-30T17:13:13.589Z,4.90
2022-11-30T17:15:41.729Z,5.63
2022-11-30T17:18:09.798Z,5.40
2022-11-30T17:20:38.962Z,5.10
2022-11-30T17:23:09.104Z,5.60
2022-11-30T17:25:37.178Z,4.83
2022-11-30T17:28:05.518Z,5.47
2022-11-30T17:30:33.669Z,4.80
2022-11-30T17:33:01.781Z,5.40
2022-11-30T17:35:29.854Z,5.63
2022-11-30T17:37:57.959Z,4.90
2022-11-30T17:40:27.376Z,5.47
2022-11-30T17:42:55.634Z,5.33
2022-11-30T17:45:23.849Z,4.93
2022-11-30T17:47:51.958Z,4.80
2022-11-30T17:50:20.057Z,5.60
2022-11-30T17:52:48.123Z,5.20
2022-11-30T17:55:16.254Z,5.67
2022-11-30T17:57:45.692Z,5.80
2022-11-30T18:00:14.657Z,5.60
2022-11-30T18:02:42.829Z,5.27
2022-11-30T18:05:11.081Z,5.30
2022-11-30T18:07:39.212Z,5.10
2022-11-30T18:10:08.626Z,6.00
2022-11-30T18:12:37.050Z,5.23
2022-11-30T18:15:07.926Z,5.30
2022-11-30T18:17:36.319Z,5.97
2022-11-30T18:20:05.395Z,5.00
2022-11-30T18:22:33.716Z,5.93
2022-11-30T18:25:01.801Z,5.67
2022-11-30T18:27:29.871Z,5.20
2022-11-30T18:29:57.947Z,5.30
2022-11-30T18:32:27.404Z,5.37
2022-11-30T18:34:55.503Z,6.40
2022-11-30T18:37:23.653Z,6.20
2022-11-30T18:39:51.820Z,6.00
2022-11-30T18:42:20.524Z,5.00
2022-11-30T18:44:48.747Z,6.60
2022-11-30T18:47:16.985Z,5.30
2022-11-30T18:49:46.444Z,5.90
2022-11-30T18:52:14.557Z,5.13
2022-11-30T18:54:42.708Z,5.93
2022-11-30T18:57:10.944Z,8.77
2022-11-30T18:59:39.098Z,9.77
2022-11-30T19:02:09.285Z,8.40
2022-11-30T19:04:37.459Z,8.53
2022-11-30T19:07:07.977Z,7.93
2022-11-30T19:09:36.138Z,6.50
2022-11-30T19:12:04.541Z,6.60
2022-11-30T19:14:32.790Z,6.60
2022-11-30T19:17:01.046Z,8.10
2022-11-30T19:19:29.972Z,7.30
2022-11-30T19:21:58.229Z,6.70
2022-11-30T19:24:27.897Z,7.50
2022-11-30T19:26:55.991Z,6.20
2022-11-30T19:29:24.127Z,6.80
2022-11-30T19:31:52.195Z,6.37
2022-11-30T19:34:20.280Z,5.20
2022-11-30T19:36:49.098Z,6.13
2022-11-30T19:39:17.335Z,7.20
2022-11-30T19:41:47.768Z,6.30
2022-11-30T19:44:16.579Z,5.90
2022-11-30T19:46:44.698Z,6.30
2022-11-30T19:49:12.874Z,6.50
2022-11-30T19:51:40.983Z,5.70
2022-11-30T19:54:09.273Z,6.67
2022-11-30T19:56:38.894Z,5.57
2022-11-30T19:59:08.328Z,6.00
2022-11-30T20:01:36.749Z,7.43
2022-11-30T20:04:05.945Z,6.23
2022-11-30T20:06:36.667Z,6.83
2022-11-30T20:09:06.576Z,7.67
2022-11-30T20:11:35.287Z,7.40
2022-11-30T20:14:03.566Z,9.40
2022-11-30T20:16:33.089Z,8.00
2022-11-30T20:19:02.607Z,8.10
2022-11-30T20:21:32.802Z,6.07
2022-11-30T20:24:02.566Z,5.90
2022-11-30T20:26:33.059Z,5.40
2022-11-30T20:29:02.923Z,5.30
2022-11-30T20:31:34.518Z,4.70
2022-11-30T20:34:03.201Z,4.30
2022-11-30T20:36:31.425Z,3.53
2022-11-30T20:39:00.002Z,4.37
2022-11-30T20:41:28.559Z,4.17
2022-11-30T20:43:57.318Z,4.40
2022-11-30T20:46:28.104Z,4.90
2022-11-30T20:48:58.894Z,4.07
2022-11-30T20:51:31.223Z,3.90
2022-11-30T20:54:00.560Z,4.40
2022-11-30T20:56:28.837Z,4.50
2022-11-30T20:58:57.256Z,4.20
2022-11-30T21:01:25.394Z,3.90
2022-11-30T21:03:53.531Z,4.47
2022-11-30T21:06:23.001Z,4.23
2022-11-30T21:08:51.109Z,4.43
2022-11-30T21:11:21.805Z,4.70
2022-11-30T21:13:51.986Z,4.20
2022-11-30T21:16:27.576Z,4.77
2022-11-30T21:18:58.738Z,4.03
2022-11-30T21:21:31.067Z,4.50
2022-11-30T21:24:00.947Z,4.63
2022-11-30T21:26:31.157Z,4.80
2022-11-30T21:29:02.618Z,5.07
2022-11-30T21:31:31.502Z,4.93
2022-11-30T21:34:00.758Z,4.47
2022-11-30T21:36:30.408Z,5.40
2022-11-30T21:39:05.676Z,5.40
2022-11-30T21:41:35.249Z,5.20
2022-11-30T21:44:03.664Z,6.30
2022-11-30T21:46:31.861Z,5.73
2022-11-30T21:49:00.113Z,5.73
2022-11-30T21:51:31.545Z,4.87
2022-11-30T21:54:01.776Z,5.00
2022-11-30T21:56:31.344Z,5.83
2022-11-30T21:59:00.356Z,5.40
2022-11-30T22:01:30.872Z,6.03
2022-11-30T22:04:00.052Z,5.60
2022-11-30T22:06:31.153Z,5.00
2022-11-30T22:09:02.865Z,6.00
2022-11-30T22:11:32.087Z,5.73
2022-11-30T22:14:00.251Z,5.37
2022-11-30T22:16:35.591Z,4.73
2022-11-30T22:19:05.117Z,6.10
2022-11-30T22:21:35.197Z,5.63
2022-11-30T22:24:04.683Z,5.50
2022-11-30T22:26:34.476Z,5.57
2022-11-30T22:29:05.255Z,5.40
2022-11-30T22:31:36.671Z,5.47
2022-11-30T22:34:06.253Z,5.90
2022-11-30T22:36:38.175Z,5.70
2022-11-30T22:39:09.673Z,6.03
2022-11-30T22:41:38.450Z,5.77
2022-11-30T22:44:06.530Z,6.20
2022-11-30T22:46:36.352Z,5.47
2022-11-30T22:49:07.326Z,5.00
2022-11-30T22:51:37.970Z,5.27
2022-11-30T22:54:06.774Z,6.10
2022-11-30T22:56:37.113Z,5.73
2022-11-30T22:59:06.602Z,5.70
2022-11-30T23:01:36.666Z,6.07
2022-11-30T23:04:07.694Z,7.03
2022-11-30T23:06:38.171Z,5.83
2022-11-30T23:09:08.643Z,6.17
2022-11-30T23:11:36.816Z,6.07
2022-11-30T23:14:07.980Z,5.00
2022-11-30T23:16:36.729Z,5.60
2022-11-30T23:19:06.068Z,5.47
2022-11-30T23:21:41.441Z,6.77
2022-11-30T23:24:14.306Z,5.80
2022-11-30T23:26:42.633Z,5.97
2022-11-30T23:29:13.573Z,5.87
2022-11-30T23:31:42.802Z,5.03
2022-11-30T23:34:13.837Z,5.67
2022-11-30T23:36:43.376Z,5.10
2022-11-30T23:39:14.677Z,5.20
2022-11-30T23:41:43.225Z,6.23
2022-11-30T23:44:12.855Z,7.43
2022-11-30T23:46:41.295Z,6.80
2022-11-30T23:49:09.707Z,6.97
2022-11-30T23:51:37.786Z,7.20
2022-11-30T23:54:07.385Z,7.77
2022-11-30T23:56:35.514Z,8.53
2022-11-30T23:59:03.640Z,7.90
